sensor_id;sensor_type;location;lat;lon;timestamp;temperature;humidity
13589;DHT22;6865;52.552;13.434;2022-12-26T00:02:02;9.10;99.90
13589;DHT22;6865;52.552;13.434;2022-12-26T00:04:29;9.10;99.90
13589;DHT22;6865;52.552;13.434;2022-12-26T00:07:16;9.20;99.90
13589;DHT22;6865;52.552;13.434;2022-12-26T00:09:42;9.20;99.90
13589;DHT22;6865;52.552;13.434;2022-12-26T00:12:09;9.30;99.90
13589;DHT22;6865;52.552;13.434;2022-12-26T00:14:36;9.30;99.90
13589;DHT22;6865;52.552;13.434;2022-12-26T00:17:04;9.20;99.90
13589;DHT22;6865;52.552;13.434;2022-12-26T00:19:30;9.20;99.90
13589;DHT22;6865;52.552;13.434;2022-12-26T00:21:57;9.20;99.90
13589;DHT22;6865;52.552;13.434;2022-12-26T00:24:23;9.20;99.90
13589;DHT22;6865;52.552;13.434;2022-12-26T00:26:50;9.20;99.90
13589;DHT22;6865;52.552;13.434;2022-12-26T00:29:16;9.30;99.90
13589;DHT22;6865;52.552;13.434;2022-12-26T00:31:43;9.20;99.90
13589;DHT22;6865;52.552;13.434;2022-12-26T00:34:10;9.30;99.90
13589;DHT22;6865;52.552;13.434;2022-12-26T00:36:36;9.30;99.90
13589;DHT22;6865;52.552;13.434;2022-12-26T00:39:03;9.30;99.90
13589;DHT22;6865;52.552;13.434;2022-12-26T00:41:30;9.30;99.90
13589;DHT22;6865;52.552;13.434;2022-12-26T00:43:57;9.30;99.90
13589;DHT22;6865;52.552;13.434;2022-12-26T00:46:24;9.40;99.90
13589;DHT22;6865;52.552;13.434;2022-12-26T00:48:52;9.40;99.90
13589;DHT22;6865;52.552;13.434;2022-12-26T00:51:18;9.50;99.90
13589;DHT22;6865;52.552;13.434;2022-12-26T00:53:45;9.40;99.90
13589;DHT22;6865;52.552;13.434;2022-12-26T00:56:12;9.40;99.90
13589;DHT22;6865;52.552;13.434;2022-12-26T00:58:39;9.50;99.90
13589;DHT22;6865;52.552;13.434;2022-12-26T01:01:18;9.50;99.90
13589;DHT22;6865;52.552;13.434;2022-12-26T01:03:46;9.50;99.90
13589;DHT22;6865;52.552;13.434;2022-12-26T01:06:13;9.50;99.90
13589;DHT22;6865;52.552;13.434;2022-12-26T01:08:40;9.60;99.90
13589;DHT22;6865;52.552;13.434;2022-12-26T01:11:10;9.60;99.90
13589;DHT22;6865;52.552;13.434;2022-12-26T01:13:36;9.60;99.90
13589;DHT22;6865;52.552;13.434;2022-12-26T01:16:04;9.60;99.90
13589;DHT22;6865;52.552;13.434;2022-12-26T01:18:32;9.60;99.90
13589;DHT22;6865;52.552;13.434;2022-12-26T01:21:07;9.60;99.90
13589;DHT22;6865;52.552;13.434;2022-12-26T01:23:34;9.60;99.90
13589;DHT22;6865;52.552;13.434;2022-12-26T01:26:00;9.70;99.90
13589;DHT22;6865;52.552;13.434;2022-12-26T01:28:48;9.70;99.90
13589;DHT22;6865;52.552;13.434;2022-12-26T01:31:16;9.70;99.90
13589;DHT22;6865;52.552;13.434;2022-12-26T01:33:43;9.70;99.90
13589;DHT22;6865;52.552;13.434;2022-12-26T01:36:09;9.70;99.90
13589;DHT22;6865;52.552;13.434;2022-12-26T01:38:36;9.70;99.90
13589;DHT22;6865;52.552;13.434;2022-12-26T01:41:03;9.70;99.90
13589;DHT22;6865;52.552;13.434;2022-12-26T01:43:52;9.60;99.90
13589;DHT22;6865;52.552;13.434;2022-12-26T01:46:29;9.70;99.90
13589;DHT22;6865;52.552;13.434;2022-12-26T01:49:01;9.80;99.90
13589;DHT22;6865;52.552;13.434;2022-12-26T01:51:35;9.80;99.90
13589;DHT22;6865;52.552;13.434;2022-12-26T01:54:07;9.60;99.90
13589;DHT22;6865;52.552;13.434;2022-12-26T01:56:56;9.70;99.90
13589;DHT22;6865;52.552;13.434;2022-12-26T01:59:25;9.70;99.90
13589;DHT22;6865;52.552;13.434;2022-12-26T02:01:54;9.70;99.90
13589;DHT22;6865;52.552;13.434;2022-12-26T02:04:25;9.70;99.90
13589;DHT22;6865;52.552;13.434;2022-12-26T02:07:23;9.60;99.90
13589;DHT22;6865;52.552;13.434;2022-12-26T02:09:50;9.60;99.90
13589;DHT22;6865;52.552;13.434;2022-12-26T02:12:37;9.60;99.90
13589;DHT22;6865;52.552;13.434;2022-12-26T02:15:10;9.60;99.90
13589;DHT22;6865;52.552;13.434;2022-12-26T02:17:39;9.60;99.90
13589;DHT22;6865;52.552;13.434;2022-12-26T02:20:20;9.10;99.90
13589;DHT22;6865;52.552;13.434;2022-12-26T02:22:59;9.70;99.90
13589;DHT22;6865;52.552;13.434;2022-12-26T02:26:20;9.70;99.90
13589;DHT22;6865;52.552;13.434;2022-12-26T02:29:13;9.80;99.90
13589;DHT22;6865;52.552;13.434;2022-12-26T02:31:58;9.90;99.90
13589;DHT22;6865;52.552;13.434;2022-12-26T02:34:44;9.90;99.90
13589;DHT22;6865;52.552;13.434;2022-12-26T02:37:30;9.90;99.90
13589;DHT22;6865;52.552;13.434;2022-12-26T02:40:24;9.90;99.90
13589;DHT22;6865;52.552;13.434;2022-12-26T02:43:15;9.90;99.90
13589;DHT22;6865;52.552;13.434;2022-12-26T02:46:03;9.90;99.90
13589;DHT22;6865;52.552;13.434;2022-12-26T02:49:16;10.00;99.90
13589;DHT22;6865;52.552;13.434;2022-12-26T02:52:04;10.00;99.90
13589;DHT22;6865;52.552;13.434;2022-12-26T02:55:03;10.00;99.90
13589;DHT22;6865;52.552;13.434;2022-12-26T02:58:00;10.10;99.90
13589;DHT22;6865;52.552;13.434;2022-12-26T03:00:47;10.10;99.90
13589;DHT22;6865;52.552;13.434;2022-12-26T03:03:35;10.00;99.90
13589;DHT22;6865;52.552;13.434;2022-12-26T03:06:25;10.00;99.90
13589;DHT22;6865;52.552;13.434;2022-12-26T03:09:16;10.00;99.90
13589;DHT22;6865;52.552;13.434;2022-12-26T03:12:28;10.00;99.90
13589;DHT22;6865;52.552;13.434;2022-12-26T03:15:18;9.90;99.90
13589;DHT22;6865;52.552;13.434;2022-12-26T03:17:49;9.90;99.90
13589;DHT22;6865;52.552;13.434;2022-12-26T03:20:25;9.90;99.90
13589;DHT22;6865;52.552;13.434;2022-12-26T03:22:58;9.90;99.90
13589;DHT22;6865;52.552;13.434;2022-12-26T03:28:15;9.90;99.90
13589;DHT22;6865;52.552;13.434;2022-12-26T03:30:42;9.90;99.90
13589;DHT22;6865;52.552;13.434;2022-12-26T03:33:16;9.90;99.90
13589;DHT22;6865;52.552;13.434;2022-12-26T03:36:03;9.90;99.90
13589;DHT22;6865;52.552;13.434;2022-12-26T03:38:36;10.00;99.90
13589;DHT22;6865;52.552;13.434;2022-12-26T03:41:14;10.00;99.90
13589;DHT22;6865;52.552;13.434;2022-12-26T03:44:21;10.00;99.90
13589;DHT22;6865;52.552;13.434;2022-12-26T03:47:38;9.90;99.90
13589;DHT22;6865;52.552;13.434;2022-12-26T03:50:37;9.90;99.90
13589;DHT22;6865;52.552;13.434;2022-12-26T03:53:41;10.00;99.90
13589;DHT22;6865;52.552;13.434;2022-12-26T03:56:42;10.00;99.90
13589;DHT22;6865;52.552;13.434;2022-12-26T03:59:37;10.00;99.90
13589;DHT22;6865;52.552;13.434;2022-12-26T04:02:26;10.10;99.90
13589;DHT22;6865;52.552;13.434;2022-12-26T04:05:14;10.00;99.90
13589;DHT22;6865;52.552;13.434;2022-12-26T04:08:19;10.10;99.90
13589;DHT22;6865;52.552;13.434;2022-12-26T04:11:13;10.10;99.90
13589;DHT22;6865;52.552;13.434;2022-12-26T04:14:27;10.10;99.90
13589;DHT22;6865;52.552;13.434;2022-12-26T04:21:18;10.30;99.90
13589;DHT22;6865;52.552;13.434;2022-12-26T04:24:13;10.10;99.90
13589;DHT22;6865;52.552;13.434;2022-12-26T04:27:02;10.30;99.90
13589;DHT22;6865;52.552;13.434;2022-12-26T04:29:49;10.30;99.90
13589;DHT22;6865;52.552;13.434;2022-12-26T04:32:43;10.30;99.90
13589;DHT22;6865;52.552;13.434;2022-12-26T04:35:48;10.30;99.90
13589;DHT22;6865;52.552;13.434;2022-12-26T04:38:39;10.30;99.90
13589;DHT22;6865;52.552;13.434;2022-12-26T04:41:27;10.40;99.90
13589;DHT22;6865;52.552;13.434;2022-12-26T04:44:14;10.40;99.90
13589;DHT22;6865;52.552;13.434;2022-12-26T04:46:47;10.40;99.90
13589;DHT22;6865;52.552;13.434;2022-12-26T04:49:16;10.40;99.90
13589;DHT22;6865;52.552;13.434;2022-12-26T04:52:10;10.30;99.90
13589;DHT22;6865;52.552;13.434;2022-12-26T04:54:37;10.40;99.90
13589;DHT22;6865;52.552;13.434;2022-12-26T04:57:05;10.30;99.90
13589;DHT22;6865;52.552;13.434;2022-12-26T04:59:32;10.30;99.90
13589;DHT22;6865;52.552;13.434;2022-12-26T05:01:59;10.30;99.90
13589;DHT22;6865;52.552;13.434;2022-12-26T05:04:44;10.30;99.90
13589;DHT22;6865;52.552;13.434;2022-12-26T05:07:32;10.30;99.90
13589;DHT22;6865;52.552;13.434;2022-12-26T05:10:26;10.30;99.90
13589;DHT22;6865;52.552;13.434;2022-12-26T05:12:53;10.40;99.90
13589;DHT22;6865;52.552;13.434;2022-12-26T05:15:20;10.30;99.90
13589;DHT22;6865;52.552;13.434;2022-12-26T05:17:47;10.40;99.90
13589;DHT22;6865;52.552;13.434;2022-12-26T05:20:32;10.40;99.90
13589;DHT22;6865;52.552;13.434;2022-12-26T05:23:20;10.40;99.90
13589;DHT22;6865;52.552;13.434;2022-12-26T05:26:13;10.40;99.90
13589;DHT22;6865;52.552;13.434;2022-12-26T05:28:59;10.40;99.90
13589;DHT22;6865;52.552;13.434;2022-12-26T05:31:26;10.00;99.90
13589;DHT22;6865;52.552;13.434;2022-12-26T05:34:01;10.40;99.90
13589;DHT22;6865;52.552;13.434;2022-12-26T05:36:47;10.40;99.90
13589;DHT22;6865;52.552;13.434;2022-12-26T05:39:15;10.40;99.90
13589;DHT22;6865;52.552;13.434;2022-12-26T05:41:41;10.40;99.90
13589;DHT22;6865;52.552;13.434;2022-12-26T05:44:08;10.40;99.90
13589;DHT22;6865;52.552;13.434;2022-12-26T05:46:36;10.40;99.90
13589;DHT22;6865;52.552;13.434;2022-12-26T05:49:04;10.40;99.90
13589;DHT22;6865;52.552;13.434;2022-12-26T05:51:31;10.30;99.90
13589;DHT22;6865;52.552;13.434;2022-12-26T05:53:58;10.30;99.90
13589;DHT22;6865;52.552;13.434;2022-12-26T05:56:25;10.30;99.90
13589;DHT22;6865;52.552;13.434;2022-12-26T05:58:56;10.30;99.90
13589;DHT22;6865;52.552;13.434;2022-12-26T06:01:24;10.30;99.90
13589;DHT22;6865;52.552;13.434;2022-12-26T06:03:53;10.30;99.90
13589;DHT22;6865;52.552;13.434;2022-12-26T06:06:21;10.30;99.90
13589;DHT22;6865;52.552;13.434;2022-12-26T06:08:49;10.40;99.90
13589;DHT22;6865;52.552;13.434;2022-12-26T06:11:17;10.50;99.90
13589;DHT22;6865;52.552;13.434;2022-12-26T06:13:44;10.40;99.90
13589;DHT22;6865;52.552;13.434;2022-12-26T06:16:13;10.40;99.90
13589;DHT22;6865;52.552;13.434;2022-12-26T06:18:41;10.40;99.90
13589;DHT22;6865;52.552;13.434;2022-12-26T06:21:16;10.30;99.90
13589;DHT22;6865;52.552;13.434;2022-12-26T06:23:43;10.30;99.90
13589;DHT22;6865;52.552;13.434;2022-12-26T06:26:10;10.30;99.90
13589;DHT22;6865;52.552;13.434;2022-12-26T06:28:39;10.30;99.90
13589;DHT22;6865;52.552;13.434;2022-12-26T06:31:15;10.30;99.90
13589;DHT22;6865;52.552;13.434;2022-12-26T06:33:42;10.30;99.90
13589;DHT22;6865;52.552;13.434;2022-12-26T06:36:11;10.30;99.90
13589;DHT22;6865;52.552;13.434;2022-12-26T06:38:38;10.20;99.90
13589;DHT22;6865;52.552;13.434;2022-12-26T06:41:07;10.30;99.90
13589;DHT22;6865;52.552;13.434;2022-12-26T06:43:34;10.20;99.90
13589;DHT22;6865;52.552;13.434;2022-12-26T06:46:04;10.30;99.90
13589;DHT22;6865;52.552;13.434;2022-12-26T06:48:31;10.30;99.90
13589;DHT22;6865;52.552;13.434;2022-12-26T06:51:02;10.30;99.90
13589;DHT22;6865;52.552;13.434;2022-12-26T06:53:29;10.30;99.90
13589;DHT22;6865;52.552;13.434;2022-12-26T06:58:33;10.30;99.90
13589;DHT22;6865;52.552;13.434;2022-12-26T07:01:16;10.30;99.90
13589;DHT22;6865;52.552;13.434;2022-12-26T07:03:44;10.30;99.90
13589;DHT22;6865;52.552;13.434;2022-12-26T07:06:28;10.20;99.90
13589;DHT22;6865;52.552;13.434;2022-12-26T07:08:57;10.30;99.90
13589;DHT22;6865;52.552;13.434;2022-12-26T07:11:27;10.40;99.90
13589;DHT22;6865;52.552;13.434;2022-12-26T07:13:54;10.40;99.90
13589;DHT22;6865;52.552;13.434;2022-12-26T07:16:21;10.30;99.90
13589;DHT22;6865;52.552;13.434;2022-12-26T07:18:51;10.30;99.90
13589;DHT22;6865;52.552;13.434;2022-12-26T07:21:18;10.10;99.90
13589;DHT22;6865;52.552;13.434;2022-12-26T07:23:44;10.30;99.90
13589;DHT22;6865;52.552;13.434;2022-12-26T07:26:11;10.30;99.90
13589;DHT22;6865;52.552;13.434;2022-12-26T07:28:38;10.40;99.90
13589;DHT22;6865;52.552;13.434;2022-12-26T07:31:05;10.40;99.90
13589;DHT22;6865;52.552;13.434;2022-12-26T07:33:32;10.30;99.90
13589;DHT22;6865;52.552;13.434;2022-12-26T07:36:00;10.30;99.90
13589;DHT22;6865;52.552;13.434;2022-12-26T07:38:27;10.30;99.90
13589;DHT22;6865;52.552;13.434;2022-12-26T07:40:55;10.30;99.90
13589;DHT22;6865;52.552;13.434;2022-12-26T07:43:24;10.30;99.90
13589;DHT22;6865;52.552;13.434;2022-12-26T07:45:51;10.30;99.90
13589;DHT22;6865;52.552;13.434;2022-12-26T07:48:18;10.40;99.90
13589;DHT22;6865;52.552;13.434;2022-12-26T07:50:45;10.30;99.90
13589;DHT22;6865;52.552;13.434;2022-12-26T07:53:13;10.30;99.90
13589;DHT22;6865;52.552;13.434;2022-12-26T07:55:40;10.40;99.90
13589;DHT22;6865;52.552;13.434;2022-12-26T07:58:07;10.30;99.90
13589;DHT22;6865;52.552;13.434;2022-12-26T08:00:33;10.20;99.90
13589;DHT22;6865;52.552;13.434;2022-12-26T08:03:00;10.30;99.90
13589;DHT22;6865;52.552;13.434;2022-12-26T08:05:33;10.30;99.90
13589;DHT22;6865;52.552;13.434;2022-12-26T08:08:00;10.40;99.90
13589;DHT22;6865;52.552;13.434;2022-12-26T08:10:26;10.50;99.90
13589;DHT22;6865;52.552;13.434;2022-12-26T08:12:53;10.50;99.90
13589;DHT22;6865;52.552;13.434;2022-12-26T08:15:20;10.50;99.90
13589;DHT22;6865;52.552;13.434;2022-12-26T08:17:46;10.40;99.90
13589;DHT22;6865;52.552;13.434;2022-12-26T08:20:13;10.40;99.90
13589;DHT22;6865;52.552;13.434;2022-12-26T08:22:39;10.50;99.90
13589;DHT22;6865;52.552;13.434;2022-12-26T08:25:06;10.60;99.90
13589;DHT22;6865;52.552;13.434;2022-12-26T08:27:33;10.60;99.90
13589;DHT22;6865;52.552;13.434;2022-12-26T08:30:00;10.60;99.90
13589;DHT22;6865;52.552;13.434;2022-12-26T08:32:27;10.60;99.90
13589;DHT22;6865;52.552;13.434;2022-12-26T08:34:53;10.50;99.90
13589;DHT22;6865;52.552;13.434;2022-12-26T08:37:20;10.50;99.90
13589;DHT22;6865;52.552;13.434;2022-12-26T08:39:50;10.40;99.90
13589;DHT22;6865;52.552;13.434;2022-12-26T08:42:19;10.40;99.90
13589;DHT22;6865;52.552;13.434;2022-12-26T08:44:46;10.40;99.90
13589;DHT22;6865;52.552;13.434;2022-12-26T08:47:13;10.40;99.90
13589;DHT22;6865;52.552;13.434;2022-12-26T08:49:40;10.50;99.90
13589;DHT22;6865;52.552;13.434;2022-12-26T08:52:06;10.50;99.90
13589;DHT22;6865;52.552;13.434;2022-12-26T08:54:33;10.50;99.90
13589;DHT22;6865;52.552;13.434;2022-12-26T08:57:00;10.50;99.90
13589;DHT22;6865;52.552;13.434;2022-12-26T08:59:27;10.50;99.90
13589;DHT22;6865;52.552;13.434;2022-12-26T09:01:53;10.50;99.90
13589;DHT22;6865;52.552;13.434;2022-12-26T09:04:20;10.50;99.90
13589;DHT22;6865;52.552;13.434;2022-12-26T09:06:47;10.50;99.90
13589;DHT22;6865;52.552;13.434;2022-12-26T09:09:13;10.50;99.90
13589;DHT22;6865;52.552;13.434;2022-12-26T09:11:41;10.60;99.90
13589;DHT22;6865;52.552;13.434;2022-12-26T09:14:08;10.50;99.90
13589;DHT22;6865;52.552;13.434;2022-12-26T09:16:39;10.50;99.90
13589;DHT22;6865;52.552;13.434;2022-12-26T09:19:16;10.50;99.90
13589;DHT22;6865;52.552;13.434;2022-12-26T09:21:43;10.50;99.90
13589;DHT22;6865;52.552;13.434;2022-12-26T09:24:12;10.50;99.90
13589;DHT22;6865;52.552;13.434;2022-12-26T09:26:39;10.50;99.90
13589;DHT22;6865;52.552;13.434;2022-12-26T09:29:06;10.50;99.90
13589;DHT22;6865;52.552;13.434;2022-12-26T09:31:34;10.50;99.90
13589;DHT22;6865;52.552;13.434;2022-12-26T09:34:05;10.50;99.90
13589;DHT22;6865;52.552;13.434;2022-12-26T09:36:35;10.50;99.90
13589;DHT22;6865;52.552;13.434;2022-12-26T09:39:06;10.60;99.90
13589;DHT22;6865;52.552;13.434;2022-12-26T09:45:08;10.60;99.90
13589;DHT22;6865;52.552;13.434;2022-12-26T09:47:52;10.60;99.90
13589;DHT22;6865;52.552;13.434;2022-12-26T09:50:28;10.60;99.90
13589;DHT22;6865;52.552;13.434;2022-12-26T09:53:03;10.60;99.90
13589;DHT22;6865;52.552;13.434;2022-12-26T09:55:36;10.60;99.90
13589;DHT22;6865;52.552;13.434;2022-12-26T09:58:09;10.80;99.90
13589;DHT22;6865;52.552;13.434;2022-12-26T10:00:45;10.60;99.90
13589;DHT22;6865;52.552;13.434;2022-12-26T10:03:14;10.70;99.90
13589;DHT22;6865;52.552;13.434;2022-12-26T10:08:25;10.60;99.90
13589;DHT22;6865;52.552;13.434;2022-12-26T10:11:02;10.70;99.90
13589;DHT22;6865;52.552;13.434;2022-12-26T10:16:20;10.70;99.90
13589;DHT22;6865;52.552;13.434;2022-12-26T10:19:02;10.70;99.90
13589;DHT22;6865;52.552;13.434;2022-12-26T10:21:46;10.80;99.90
13589;DHT22;6865;52.552;13.434;2022-12-26T10:24:19;10.80;99.90
13589;DHT22;6865;52.552;13.434;2022-12-26T10:26:49;10.70;99.90
13589;DHT22;6865;52.552;13.434;2022-12-26T10:29:38;10.80;99.90
13589;DHT22;6865;52.552;13.434;2022-12-26T10:32:21;10.80;99.90
13589;DHT22;6865;52.552;13.434;2022-12-26T10:34:53;10.80;99.90
13589;DHT22;6865;52.552;13.434;2022-12-26T10:37:32;10.80;99.90
13589;DHT22;6865;52.552;13.434;2022-12-26T10:40:18;10.70;99.90
13589;DHT22;6865;52.552;13.434;2022-12-26T10:42:53;10.70;99.90
13589;DHT22;6865;52.552;13.434;2022-12-26T10:45:38;10.70;99.90
13589;DHT22;6865;52.552;13.434;2022-12-26T10:48:12;10.70;99.90
13589;DHT22;6865;52.552;13.434;2022-12-26T10:50:45;10.70;99.90
13589;DHT22;6865;52.552;13.434;2022-12-26T10:53:13;10.70;99.90
13589;DHT22;6865;52.552;13.434;2022-12-26T10:55:41;10.70;99.90
13589;DHT22;6865;52.552;13.434;2022-12-26T10:58:18;10.60;99.90
13589;DHT22;6865;52.552;13.434;2022-12-26T11:00:46;10.60;99.90
13589;DHT22;6865;52.552;13.434;2022-12-26T11:03:15;10.60;99.90
13589;DHT22;6865;52.552;13.434;2022-12-26T11:08:47;10.60;99.90
13589;DHT22;6865;52.552;13.434;2022-12-26T11:11:32;10.50;99.90
13589;DHT22;6865;52.552;13.434;2022-12-26T11:14:37;10.50;99.90
13589;DHT22;6865;52.552;13.434;2022-12-26T11:17:11;10.50;99.90
13589;DHT22;6865;52.552;13.434;2022-12-26T11:19:41;10.40;99.90
13589;DHT22;6865;52.552;13.434;2022-12-26T11:24:40;10.70;99.90
13589;DHT22;6865;52.552;13.434;2022-12-26T11:27:17;10.40;99.90
13589;DHT22;6865;52.552;13.434;2022-12-26T11:29:44;10.40;99.90
13589;DHT22;6865;52.552;13.434;2022-12-26T11:32:18;10.30;99.90
13589;DHT22;6865;52.552;13.434;2022-12-26T11:34:47;10.30;99.90
13589;DHT22;6865;52.552;13.434;2022-12-26T11:37:24;10.20;99.90
13589;DHT22;6865;52.552;13.434;2022-12-26T11:39:53;10.30;99.90
13589;DHT22;6865;52.552;13.434;2022-12-26T11:42:23;10.30;99.90
13589;DHT22;6865;52.552;13.434;2022-12-26T11:44:53;10.20;99.90
13589;DHT22;6865;52.552;13.434;2022-12-26T11:47:24;10.30;99.90
13589;DHT22;6865;52.552;13.434;2022-12-26T11:50:05;10.30;99.90
13589;DHT22;6865;52.552;13.434;2022-12-26T11:53:02;10.30;99.90
13589;DHT22;6865;52.552;13.434;2022-12-26T11:55:34;10.30;99.90
13589;DHT22;6865;52.552;13.434;2022-12-26T12:00:40;10.30;99.90
13589;DHT22;6865;52.552;13.434;2022-12-26T12:03:13;10.40;99.90
13589;DHT22;6865;52.552;13.434;2022-12-26T12:06:01;10.40;99.90
13589;DHT22;6865;52.552;13.434;2022-12-26T12:08:35;10.40;99.90
13589;DHT22;6865;52.552;13.434;2022-12-26T12:11:24;10.50;99.90
13589;DHT22;6865;52.552;13.434;2022-12-26T12:17:16;10.40;99.90
13589;DHT22;6865;52.552;13.434;2022-12-26T12:20:22;10.40;99.90
13589;DHT22;6865;52.552;13.434;2022-12-26T12:23:27;10.30;99.90
13589;DHT22;6865;52.552;13.434;2022-12-26T12:26:08;10.30;99.90
13589;DHT22;6865;52.552;13.434;2022-12-26T12:29:05;10.30;99.90
13589;DHT22;6865;52.552;13.434;2022-12-26T12:40:00;10.30;99.90
13589;DHT22;6865;52.552;13.434;2022-12-26T12:42:42;10.30;99.90
13589;DHT22;6865;52.552;13.434;2022-12-26T12:45:27;10.30;99.90
13589;DHT22;6865;52.552;13.434;2022-12-26T12:48:20;10.30;99.90
13589;DHT22;6865;52.552;13.434;2022-12-26T12:54:01;10.30;99.90
13589;DHT22;6865;52.552;13.434;2022-12-26T12:56:50;10.30;99.90
13589;DHT22;6865;52.552;13.434;2022-12-26T12:59:32;10.30;99.90
13589;DHT22;6865;52.552;13.434;2022-12-26T13:02:12;10.30;99.90
13589;DHT22;6865;52.552;13.434;2022-12-26T13:04:50;10.40;99.90
13589;DHT22;6865;52.552;13.434;2022-12-26T13:07:33;10.40;99.90
13589;DHT22;6865;52.552;13.434;2022-12-26T13:10:03;10.40;99.90
13589;DHT22;6865;52.552;13.434;2022-12-26T13:12:36;10.50;99.90
13589;DHT22;6865;52.552;13.434;2022-12-26T13:15:27;10.40;99.90
13589;DHT22;6865;52.552;13.434;2022-12-26T13:18:21;10.50;99.90
13589;DHT22;6865;52.552;13.434;2022-12-26T13:21:14;10.50;99.90
13589;DHT22;6865;52.552;13.434;2022-12-26T13:23:48;10.50;99.90
13589;DHT22;6865;52.552;13.434;2022-12-26T13:26:42;10.50;99.90
13589;DHT22;6865;52.552;13.434;2022-12-26T13:29:33;10.30;99.90
13589;DHT22;6865;52.552;13.434;2022-12-26T13:32:01;10.30;99.90
13589;DHT22;6865;52.552;13.434;2022-12-26T13:34:32;10.20;99.90
13589;DHT22;6865;52.552;13.434;2022-12-26T13:36:59;10.20;99.90
13589;DHT22;6865;52.552;13.434;2022-12-26T13:42:14;10.20;99.90
13589;DHT22;6865;52.552;13.434;2022-12-26T13:50:58;10.20;99.90
13589;DHT22;6865;52.552;13.434;2022-12-26T13:53:31;10.20;99.90
13589;DHT22;6865;52.552;13.434;2022-12-26T13:56:01;10.10;99.90
13589;DHT22;6865;52.552;13.434;2022-12-26T14:01:33;10.00;99.90
13589;DHT22;6865;52.552;13.434;2022-12-26T14:07:27;10.10;99.90
13589;DHT22;6865;52.552;13.434;2022-12-26T14:10:03;10.10;99.90
13589;DHT22;6865;52.552;13.434;2022-12-26T14:12:53;10.20;99.90
13589;DHT22;6865;52.552;13.434;2022-12-26T14:18:35;10.20;99.90
13589;DHT22;6865;52.552;13.434;2022-12-26T14:26:39;10.10;99.90
13589;DHT22;6865;52.552;13.434;2022-12-26T14:29:40;10.10;99.90
13589;DHT22;6865;52.552;13.434;2022-12-26T14:32:33;10.10;99.90
13589;DHT22;6865;52.552;13.434;2022-12-26T14:37:48;10.00;99.90
13589;DHT22;6865;52.552;13.434;2022-12-26T14:40:34;9.90;99.90
13589;DHT22;6865;52.552;13.434;2022-12-26T14:43:10;9.80;99.90
13589;DHT22;6865;52.552;13.434;2022-12-26T14:45:48;9.80;99.90
13589;DHT22;6865;52.552;13.434;2022-12-26T14:50:47;9.80;99.90
13589;DHT22;6865;52.552;13.434;2022-12-26T14:53:28;9.80;99.90
13589;DHT22;6865;52.552;13.434;2022-12-26T15:13:07;9.90;99.90
13589;DHT22;6865;52.552;13.434;2022-12-26T15:16:11;10.00;99.90
13589;DHT22;6865;52.552;13.434;2022-12-26T15:25:02;10.10;99.90
13589;DHT22;6865;52.552;13.434;2022-12-26T15:28:49;10.10;99.90
13589;DHT22;6865;52.552;13.434;2022-12-26T15:31:18;10.20;99.90
13589;DHT22;6865;52.552;13.434;2022-12-26T15:34:05;10.20;99.90
13589;DHT22;6865;52.552;13.434;2022-12-26T15:36:48;10.10;99.90
13589;DHT22;6865;52.552;13.434;2022-12-26T15:42:38;10.10;99.90
13589;DHT22;6865;52.552;13.434;2022-12-26T15:45:22;10.00;99.90
13589;DHT22;6865;52.552;13.434;2022-12-26T15:48:18;10.00;99.90
13589;DHT22;6865;52.552;13.434;2022-12-26T15:51:06;9.90;99.90
13589;DHT22;6865;52.552;13.434;2022-12-26T15:57:46;9.80;99.90
13589;DHT22;6865;52.552;13.434;2022-12-26T16:02:40;9.70;99.90
13589;DHT22;6865;52.552;13.434;2022-12-26T16:07:48;9.80;99.90
13589;DHT22;6865;52.552;13.434;2022-12-26T16:15:51;9.80;99.90
13589;DHT22;6865;52.552;13.434;2022-12-26T16:18:21;9.70;99.90
13589;DHT22;6865;52.552;13.434;2022-12-26T16:20:53;9.60;99.90
13589;DHT22;6865;52.552;13.434;2022-12-26T16:23:40;9.60;99.90
13589;DHT22;6865;52.552;13.434;2022-12-26T16:26:25;9.60;99.90
13589;DHT22;6865;52.552;13.434;2022-12-26T16:28:52;9.70;99.90
13589;DHT22;6865;52.552;13.434;2022-12-26T16:31:23;9.70;99.90
13589;DHT22;6865;52.552;13.434;2022-12-26T16:33:52;9.70;99.90
13589;DHT22;6865;52.552;13.434;2022-12-26T16:36:27;9.70;99.90
13589;DHT22;6865;52.552;13.434;2022-12-26T16:38:54;9.70;99.90
13589;DHT22;6865;52.552;13.434;2022-12-26T16:41:30;9.70;99.90
13589;DHT22;6865;52.552;13.434;2022-12-26T16:44:26;9.70;99.90
13589;DHT22;6865;52.552;13.434;2022-12-26T16:46:59;9.80;99.90
13589;DHT22;6865;52.552;13.434;2022-12-26T16:49:27;9.70;99.90
13589;DHT22;6865;52.552;13.434;2022-12-26T16:51:55;9.80;99.90
13589;DHT22;6865;52.552;13.434;2022-12-26T16:54:35;9.80;99.90
13589;DHT22;6865;52.552;13.434;2022-12-26T16:57:13;9.90;99.90
13589;DHT22;6865;52.552;13.434;2022-12-26T16:59:50;9.80;99.90
13589;DHT22;6865;52.552;13.434;2022-12-26T17:02:21;9.80;99.90
13589;DHT22;6865;52.552;13.434;2022-12-26T17:07:26;10.00;99.90
13589;DHT22;6865;52.552;13.434;2022-12-26T17:09:57;10.00;99.90
13589;DHT22;6865;52.552;13.434;2022-12-26T17:12:30;10.00;99.90
13589;DHT22;6865;52.552;13.434;2022-12-26T17:14:58;9.90;99.90
13589;DHT22;6865;52.552;13.434;2022-12-26T17:17:34;9.90;99.90
13589;DHT22;6865;52.552;13.434;2022-12-26T17:20:31;9.90;99.90
13589;DHT22;6865;52.552;13.434;2022-12-26T17:23:34;9.70;99.90
13589;DHT22;6865;52.552;13.434;2022-12-26T17:26:23;9.80;99.90
13589;DHT22;6865;52.552;13.434;2022-12-26T17:28:50;9.80;99.90
13589;DHT22;6865;52.552;13.434;2022-12-26T17:31:39;9.80;99.90
13589;DHT22;6865;52.552;13.434;2022-12-26T17:34:13;9.70;99.90
13589;DHT22;6865;52.552;13.434;2022-12-26T17:36:41;9.70;99.90
13589;DHT22;6865;52.552;13.434;2022-12-26T17:39:28;9.70;99.90
13589;DHT22;6865;52.552;13.434;2022-12-26T17:41:57;9.60;99.90
13589;DHT22;6865;52.552;13.434;2022-12-26T17:44:41;9.70;99.90
13589;DHT22;6865;52.552;13.434;2022-12-26T17:47:13;9.60;99.90
13589;DHT22;6865;52.552;13.434;2022-12-26T17:49:40;9.50;99.90
13589;DHT22;6865;52.552;13.434;2022-12-26T17:52:10;9.40;99.90
13589;DHT22;6865;52.552;13.434;2022-12-26T17:54:37;9.40;99.90
13589;DHT22;6865;52.552;13.434;2022-12-26T17:57:04;9.30;99.90
13589;DHT22;6865;52.552;13.434;2022-12-26T17:59:30;9.30;99.90
13589;DHT22;6865;52.552;13.434;2022-12-26T18:01:57;9.20;99.90
13589;DHT22;6865;52.552;13.434;2022-12-26T18:04:23;9.20;99.90
13589;DHT22;6865;52.552;13.434;2022-12-26T18:06:50;9.20;99.90
13589;DHT22;6865;52.552;13.434;2022-12-26T18:09:26;9.20;99.90
13589;DHT22;6865;52.552;13.434;2022-12-26T18:11:53;9.20;99.90
13589;DHT22;6865;52.552;13.434;2022-12-26T18:14:20;9.20;99.90
13589;DHT22;6865;52.552;13.434;2022-12-26T18:16:48;9.10;99.90
13589;DHT22;6865;52.552;13.434;2022-12-26T18:19:17;9.10;99.90
13589;DHT22;6865;52.552;13.434;2022-12-26T18:21:44;9.00;99.90
13589;DHT22;6865;52.552;13.434;2022-12-26T18:24:11;8.90;99.90